sensor_id;sensor_type;location;lat;lon;timestamp;P1;durP1;ratioP1;P2;durP2;ratioP2
38609;SDS011;24367;51.640;9.566;2023-02-26T00:01:02;1.50;;;0.80;;
38609;SDS011;24367;51.640;9.566;2023-02-26T00:03:29;2.55;;;1.23;;
38609;SDS011;24367;51.640;9.566;2023-02-26T00:05:58;3.60;;;0.95;;
38609;SDS011;24367;51.640;9.566;2023-02-26T00:08:25;2.53;;;1.20;;
38609;SDS011;24367;51.640;9.566;2023-02-26T00:10:51;2.90;;;1.45;;
38609;SDS011;24367;51.640;9.566;2023-02-26T00:13:19;2.88;;;1.10;;
38609;SDS011;24367;51.640;9.566;2023-02-26T00:15:45;2.22;;;1.10;;
38609;SDS011;24367;51.640;9.566;2023-02-26T00:18:14;1.27;;;0.88;;
38609;SDS011;24367;51.640;9.566;2023-02-26T00:20:41;2.17;;;1.08;;
38609;SDS011;24367;51.640;9.566;2023-02-26T00:23:10;3.10;;;1.20;;
38609;SDS011;24367;51.640;9.566;2023-02-26T00:25:38;3.08;;;1.20;;
38609;SDS011;24367;51.640;9.566;2023-02-26T00:28:04;3.10;;;1.40;;
38609;SDS011;24367;51.640;9.566;2023-02-26T00:30:32;2.13;;;1.20;;
38609;SDS011;24367;51.640;9.566;2023-02-26T00:32:59;4.38;;;1.38;;
38609;SDS011;24367;51.640;9.566;2023-02-26T00:35:27;2.20;;;1.00;;
38609;SDS011;24367;51.640;9.566;2023-02-26T00:37:58;2.47;;;1.20;;
38609;SDS011;24367;51.640;9.566;2023-02-26T00:40:40;2.17;;;1.10;;
38609;SDS011;24367;51.640;9.566;2023-02-26T00:43:12;2.20;;;0.95;;
38609;SDS011;24367;51.640;9.566;2023-02-26T00:45:40;3.38;;;1.58;;
38609;SDS011;24367;51.640;9.566;2023-02-26T00:51:04;3.97;;;0.95;;
38609;SDS011;24367;51.640;9.566;2023-02-26T00:53:35;2.30;;;0.95;;
38609;SDS011;24367;51.640;9.566;2023-02-26T00:56:07;1.92;;;0.98;;
38609;SDS011;24367;51.640;9.566;2023-02-26T00:58:33;2.10;;;0.90;;
38609;SDS011;24367;51.640;9.566;2023-02-26T01:01:00;2.67;;;1.20;;
38609;SDS011;24367;51.640;9.566;2023-02-26T01:03:27;3.33;;;1.35;;
38609;SDS011;24367;51.640;9.566;2023-02-26T01:05:54;2.10;;;1.10;;
38609;SDS011;24367;51.640;9.566;2023-02-26T01:08:23;2.63;;;1.27;;
38609;SDS011;24367;51.640;9.566;2023-02-26T01:10:53;1.92;;;1.02;;
38609;SDS011;24367;51.640;9.566;2023-02-26T01:13:20;2.22;;;1.10;;
38609;SDS011;24367;51.640;9.566;2023-02-26T01:15:48;2.47;;;0.98;;
38609;SDS011;24367;51.640;9.566;2023-02-26T01:18:18;2.58;;;1.20;;
38609;SDS011;24367;51.640;9.566;2023-02-26T01:20:48;2.90;;;1.38;;
38609;SDS011;24367;51.640;9.566;2023-02-26T01:23:19;2.50;;;1.27;;
38609;SDS011;24367;51.640;9.566;2023-02-26T01:25:50;1.98;;;0.95;;
38609;SDS011;24367;51.640;9.566;2023-02-26T01:28:19;2.30;;;0.93;;
38609;SDS011;24367;51.640;9.566;2023-02-26T01:30:46;2.30;;;0.98;;
38609;SDS011;24367;51.640;9.566;2023-02-26T01:33:13;2.38;;;1.02;;
38609;SDS011;24367;51.640;9.566;2023-02-26T01:35:44;2.38;;;1.10;;
38609;SDS011;24367;51.640;9.566;2023-02-26T01:38:15;3.08;;;1.23;;
38609;SDS011;24367;51.640;9.566;2023-02-26T01:43:51;2.78;;;1.13;;
38609;SDS011;24367;51.640;9.566;2023-02-26T01:46:25;3.60;;;1.15;;
38609;SDS011;24367;51.640;9.566;2023-02-26T01:48:55;2.85;;;1.10;;
38609;SDS011;24367;51.640;9.566;2023-02-26T01:54:21;3.72;;;1.13;;
38609;SDS011;24367;51.640;9.566;2023-02-26T01:56:54;4.15;;;1.30;;
38609;SDS011;24367;51.640;9.566;2023-02-26T01:59:21;3.75;;;1.20;;
38609;SDS011;24367;51.640;9.566;2023-02-26T02:01:49;1.95;;;0.95;;
38609;SDS011;24367;51.640;9.566;2023-02-26T02:04:17;2.28;;;1.10;;
38609;SDS011;24367;51.640;9.566;2023-02-26T02:06:44;1.98;;;0.77;;
38609;SDS011;24367;51.640;9.566;2023-02-26T02:09:11;2.03;;;0.95;;
38609;SDS011;24367;51.640;9.566;2023-02-26T02:11:39;2.78;;;0.95;;
38609;SDS011;24367;51.640;9.566;2023-02-26T02:14:16;2.10;;;0.90;;
38609;SDS011;24367;51.640;9.566;2023-02-26T02:16:49;2.53;;;1.33;;
38609;SDS011;24367;51.640;9.566;2023-02-26T02:19:28;2.53;;;1.00;;
38609;SDS011;24367;51.640;9.566;2023-02-26T02:22:12;2.78;;;0.85;;
38609;SDS011;24367;51.640;9.566;2023-02-26T02:24:43;2.90;;;1.00;;
38609;SDS011;24367;51.640;9.566;2023-02-26T02:27:18;2.83;;;1.00;;
38609;SDS011;24367;51.640;9.566;2023-02-26T02:29:54;2.83;;;1.20;;
38609;SDS011;24367;51.640;9.566;2023-02-26T02:32:30;2.58;;;1.17;;
38609;SDS011;24367;51.640;9.566;2023-02-26T02:35:02;2.88;;;1.13;;
38609;SDS011;24367;51.640;9.566;2023-02-26T02:37:35;2.75;;;1.10;;
38609;SDS011;24367;51.640;9.566;2023-02-26T02:40:03;3.30;;;1.23;;
38609;SDS011;24367;51.640;9.566;2023-02-26T02:42:32;2.53;;;1.05;;
38609;SDS011;24367;51.640;9.566;2023-02-26T02:45:02;2.05;;;0.90;;
38609;SDS011;24367;51.640;9.566;2023-02-26T02:47:34;2.15;;;1.10;;
38609;SDS011;24367;51.640;9.566;2023-02-26T02:50:04;2.95;;;1.10;;
38609;SDS011;24367;51.640;9.566;2023-02-26T02:52:34;2.08;;;0.80;;
38609;SDS011;24367;51.640;9.566;2023-02-26T02:55:05;2.38;;;1.05;;
38609;SDS011;24367;51.640;9.566;2023-02-26T02:57:35;1.50;;;0.70;;
38609;SDS011;24367;51.640;9.566;2023-02-26T03:00:04;1.75;;;0.75;;
38609;SDS011;24367;51.640;9.566;2023-02-26T03:02:38;2.03;;;0.90;;
38609;SDS011;24367;51.640;9.566;2023-02-26T03:05:06;2.15;;;1.05;;
38609;SDS011;24367;51.640;9.566;2023-02-26T03:07:33;2.50;;;0.93;;
38609;SDS011;24367;51.640;9.566;2023-02-26T03:10:04;2.60;;;1.00;;
38609;SDS011;24367;51.640;9.566;2023-02-26T03:12:31;2.00;;;0.80;;
38609;SDS011;24367;51.640;9.566;2023-02-26T03:14:58;2.60;;;0.93;;
38609;SDS011;24367;51.640;9.566;2023-02-26T03:17:26;1.88;;;0.93;;
38609;SDS011;24367;51.640;9.566;2023-02-26T03:20:02;1.95;;;0.82;;
38609;SDS011;24367;51.640;9.566;2023-02-26T03:22:36;3.20;;;1.10;;
38609;SDS011;24367;51.640;9.566;2023-02-26T03:25:16;1.95;;;0.90;;
38609;SDS011;24367;51.640;9.566;2023-02-26T03:27:45;2.83;;;1.10;;
38609;SDS011;24367;51.640;9.566;2023-02-26T03:30:17;2.13;;;1.00;;
38609;SDS011;24367;51.640;9.566;2023-02-26T03:32:50;2.08;;;1.00;;
38609;SDS011;24367;51.640;9.566;2023-02-26T03:35:24;2.05;;;1.00;;
38609;SDS011;24367;51.640;9.566;2023-02-26T03:37:53;1.83;;;0.80;;
38609;SDS011;24367;51.640;9.566;2023-02-26T03:40:25;1.85;;;0.95;;
38609;SDS011;24367;51.640;9.566;2023-02-26T03:42:56;2.05;;;0.90;;
38609;SDS011;24367;51.640;9.566;2023-02-26T03:45:25;1.52;;;0.70;;
38609;SDS011;24367;51.640;9.566;2023-02-26T03:47:54;2.20;;;1.05;;
38609;SDS011;24367;51.640;9.566;2023-02-26T03:50:25;2.25;;;0.93;;
38609;SDS011;24367;51.640;9.566;2023-02-26T03:53:17;1.75;;;1.00;;
38609;SDS011;24367;51.640;9.566;2023-02-26T03:55:49;2.20;;;0.80;;
38609;SDS011;24367;51.640;9.566;2023-02-26T03:58:38;1.70;;;0.80;;
38609;SDS011;24367;51.640;9.566;2023-02-26T04:01:30;2.03;;;0.93;;
38609;SDS011;24367;51.640;9.566;2023-02-26T04:04:00;1.83;;;0.80;;
38609;SDS011;24367;51.640;9.566;2023-02-26T04:06:31;1.52;;;0.80;;
38609;SDS011;24367;51.640;9.566;2023-02-26T04:08:59;1.75;;;0.98;;
38609;SDS011;24367;51.640;9.566;2023-02-26T04:11:27;1.38;;;0.80;;
38609;SDS011;24367;51.640;9.566;2023-02-26T04:13:54;2.95;;;1.00;;
38609;SDS011;24367;51.640;9.566;2023-02-26T04:16:21;1.65;;;0.80;;
38609;SDS011;24367;51.640;9.566;2023-02-26T04:18:49;1.60;;;0.90;;
38609;SDS011;24367;51.640;9.566;2023-02-26T04:21:17;1.13;;;0.60;;
38609;SDS011;24367;51.640;9.566;2023-02-26T04:23:47;2.22;;;1.10;;
38609;SDS011;24367;51.640;9.566;2023-02-26T04:26:14;2.28;;;1.02;;
38609;SDS011;24367;51.640;9.566;2023-02-26T04:28:42;1.70;;;0.88;;
38609;SDS011;24367;51.640;9.566;2023-02-26T04:31:08;1.90;;;0.70;;
38609;SDS011;24367;51.640;9.566;2023-02-26T04:33:35;2.38;;;0.80;;
38609;SDS011;24367;51.640;9.566;2023-02-26T04:36:02;2.95;;;1.00;;
38609;SDS011;24367;51.640;9.566;2023-02-26T04:38:29;1.50;;;0.70;;
38609;SDS011;24367;51.640;9.566;2023-02-26T04:40:57;1.83;;;0.80;;
38609;SDS011;24367;51.640;9.566;2023-02-26T04:43:23;1.70;;;0.70;;
38609;SDS011;24367;51.640;9.566;2023-02-26T04:46:03;1.48;;;0.73;;
38609;SDS011;24367;51.640;9.566;2023-02-26T04:48:31;1.48;;;0.73;;
38609;SDS011;24367;51.640;9.566;2023-02-26T04:50:57;1.85;;;0.90;;
38609;SDS011;24367;51.640;9.566;2023-02-26T04:53:24;2.10;;;0.75;;
38609;SDS011;24367;51.640;9.566;2023-02-26T04:55:50;1.65;;;0.80;;
38609;SDS011;24367;51.640;9.566;2023-02-26T04:58:18;1.38;;;0.60;;
38609;SDS011;24367;51.640;9.566;2023-02-26T05:00:46;2.05;;;0.90;;
38609;SDS011;24367;51.640;9.566;2023-02-26T05:03:13;2.33;;;0.90;;
38609;SDS011;24367;51.640;9.566;2023-02-26T05:05:40;1.38;;;0.63;;
38609;SDS011;24367;51.640;9.566;2023-02-26T05:08:06;1.75;;;0.80;;
38609;SDS011;24367;51.640;9.566;2023-02-26T05:10:33;1.45;;;0.60;;
38609;SDS011;24367;51.640;9.566;2023-02-26T05:13:00;1.83;;;0.93;;
38609;SDS011;24367;51.640;9.566;2023-02-26T05:15:28;2.50;;;0.90;;
38609;SDS011;24367;51.640;9.566;2023-02-26T05:17:55;2.22;;;0.80;;
38609;SDS011;24367;51.640;9.566;2023-02-26T05:20:21;1.95;;;1.02;;
38609;SDS011;24367;51.640;9.566;2023-02-26T05:22:47;2.03;;;0.80;;
38609;SDS011;24367;51.640;9.566;2023-02-26T05:25:14;1.70;;;0.90;;
38609;SDS011;24367;51.640;9.566;2023-02-26T05:27:41;1.60;;;0.70;;
38609;SDS011;24367;51.640;9.566;2023-02-26T05:30:09;1.88;;;0.70;;
38609;SDS011;24367;51.640;9.566;2023-02-26T05:32:38;1.48;;;0.60;;
38609;SDS011;24367;51.640;9.566;2023-02-26T05:35:05;1.75;;;0.80;;
38609;SDS011;24367;51.640;9.566;2023-02-26T05:37:32;1.65;;;0.63;;
38609;SDS011;24367;51.640;9.566;2023-02-26T05:39:59;1.92;;;0.63;;
38609;SDS011;24367;51.640;9.566;2023-02-26T05:42:25;1.92;;;0.80;;
38609;SDS011;24367;51.640;9.566;2023-02-26T05:44:52;2.88;;;1.00;;
38609;SDS011;24367;51.640;9.566;2023-02-26T05:47:18;1.98;;;0.70;;
38609;SDS011;24367;51.640;9.566;2023-02-26T05:49:46;1.10;;;0.50;;
38609;SDS011;24367;51.640;9.566;2023-02-26T05:52:12;1.67;;;0.70;;
38609;SDS011;24367;51.640;9.566;2023-02-26T05:54:39;1.48;;;0.80;;
38609;SDS011;24367;51.640;9.566;2023-02-26T05:57:05;2.35;;;0.60;;
38609;SDS011;24367;51.640;9.566;2023-02-26T05:59:32;1.27;;;0.55;;
38609;SDS011;24367;51.640;9.566;2023-02-26T06:01:58;1.88;;;0.80;;
38609;SDS011;24367;51.640;9.566;2023-02-26T06:04:25;1.20;;;0.70;;
38609;SDS011;24367;51.640;9.566;2023-02-26T06:06:53;1.88;;;0.75;;
38609;SDS011;24367;51.640;9.566;2023-02-26T06:09:19;2.40;;;0.80;;
38609;SDS011;24367;51.640;9.566;2023-02-26T06:11:45;1.98;;;0.65;;
38609;SDS011;24367;51.640;9.566;2023-02-26T06:14:12;1.35;;;0.80;;
38609;SDS011;24367;51.640;9.566;2023-02-26T06:16:38;2.22;;;0.80;;
38609;SDS011;24367;51.640;9.566;2023-02-26T06:19:05;1.65;;;0.60;;
38609;SDS011;24367;51.640;9.566;2023-02-26T06:21:32;1.45;;;0.73;;
38609;SDS011;24367;51.640;9.566;2023-02-26T06:24:00;2.05;;;0.80;;
38609;SDS011;24367;51.640;9.566;2023-02-26T06:26:26;1.40;;;0.60;;
38609;SDS011;24367;51.640;9.566;2023-02-26T06:28:53;1.52;;;0.60;;
38609;SDS011;24367;51.640;9.566;2023-02-26T06:31:19;1.40;;;0.70;;
38609;SDS011;24367;51.640;9.566;2023-02-26T06:33:46;1.63;;;0.73;;
38609;SDS011;24367;51.640;9.566;2023-02-26T06:36:12;1.95;;;0.80;;
38609;SDS011;24367;51.640;9.566;2023-02-26T06:38:39;1.98;;;0.88;;
38609;SDS011;24367;51.640;9.566;2023-02-26T06:41:07;3.08;;;0.80;;
38609;SDS011;24367;51.640;9.566;2023-02-26T06:43:33;1.67;;;0.70;;
38609;SDS011;24367;51.640;9.566;2023-02-26T06:46:00;0.90;;;0.52;;
38609;SDS011;24367;51.640;9.566;2023-02-26T06:48:26;1.70;;;0.73;;
38609;SDS011;24367;51.640;9.566;2023-02-26T06:50:53;1.48;;;0.65;;
38609;SDS011;24367;51.640;9.566;2023-02-26T06:53:19;1.50;;;0.65;;
38609;SDS011;24367;51.640;9.566;2023-02-26T06:55:48;2.15;;;1.10;;
38609;SDS011;24367;51.640;9.566;2023-02-26T06:58:18;2.03;;;0.90;;
38609;SDS011;24367;51.640;9.566;2023-02-26T07:00:45;1.88;;;0.80;;
38609;SDS011;24367;51.640;9.566;2023-02-26T07:03:12;1.70;;;0.68;;
38609;SDS011;24367;51.640;9.566;2023-02-26T07:05:39;1.45;;;0.70;;
38609;SDS011;24367;51.640;9.566;2023-02-26T07:08:06;1.65;;;0.85;;
38609;SDS011;24367;51.640;9.566;2023-02-26T07:10:33;1.27;;;0.60;;
38609;SDS011;24367;51.640;9.566;2023-02-26T07:13:00;2.97;;;0.80;;
38609;SDS011;24367;51.640;9.566;2023-02-26T07:15:28;0.98;;;0.50;;
38609;SDS011;24367;51.640;9.566;2023-02-26T07:17:55;1.73;;;0.75;;
38609;SDS011;24367;51.640;9.566;2023-02-26T07:20:24;1.58;;;0.70;;
38609;SDS011;24367;51.640;9.566;2023-02-26T07:22:50;2.20;;;0.98;;
38609;SDS011;24367;51.640;9.566;2023-02-26T07:25:17;1.90;;;0.77;;
38609;SDS011;24367;51.640;9.566;2023-02-26T07:27:43;1.77;;;0.70;;
38609;SDS011;24367;51.640;9.566;2023-02-26T07:30:10;1.15;;;0.60;;
38609;SDS011;24367;51.640;9.566;2023-02-26T07:32:39;1.05;;;0.50;;
38609;SDS011;24367;51.640;9.566;2023-02-26T07:35:05;1.83;;;0.70;;
38609;SDS011;24367;51.640;9.566;2023-02-26T07:37:32;1.45;;;0.50;;
38609;SDS011;24367;51.640;9.566;2023-02-26T07:39:58;2.55;;;0.82;;
38609;SDS011;24367;51.640;9.566;2023-02-26T07:42:25;1.63;;;0.65;;
38609;SDS011;24367;51.640;9.566;2023-02-26T07:44:51;1.35;;;0.60;;
38609;SDS011;24367;51.640;9.566;2023-02-26T07:47:18;1.95;;;0.82;;
38609;SDS011;24367;51.640;9.566;2023-02-26T07:49:45;1.58;;;0.77;;
38609;SDS011;24367;51.640;9.566;2023-02-26T07:52:12;2.20;;;0.90;;
38609;SDS011;24367;51.640;9.566;2023-02-26T07:54:38;1.40;;;0.70;;
38609;SDS011;24367;51.640;9.566;2023-02-26T07:57:05;1.50;;;0.77;;
38609;SDS011;24367;51.640;9.566;2023-02-26T07:59:31;1.58;;;0.70;;
38609;SDS011;24367;51.640;9.566;2023-02-26T08:01:58;1.95;;;0.73;;
38609;SDS011;24367;51.640;9.566;2023-02-26T08:04:24;1.27;;;0.60;;
38609;SDS011;24367;51.640;9.566;2023-02-26T08:06:52;1.10;;;0.60;;
38609;SDS011;24367;51.640;9.566;2023-02-26T08:09:19;2.33;;;0.90;;
38609;SDS011;24367;51.640;9.566;2023-02-26T08:11:45;1.05;;;0.68;;
38609;SDS011;24367;51.640;9.566;2023-02-26T08:14:12;2.88;;;0.90;;
38609;SDS011;24367;51.640;9.566;2023-02-26T08:16:38;1.40;;;0.60;;
38609;SDS011;24367;51.640;9.566;2023-02-26T08:19:05;1.40;;;0.60;;
38609;SDS011;24367;51.640;9.566;2023-02-26T08:21:31;1.15;;;0.60;;
38609;SDS011;24367;51.640;9.566;2023-02-26T08:23:59;2.42;;;0.75;;
38609;SDS011;24367;51.640;9.566;2023-02-26T08:26:25;2.97;;;0.63;;
38609;SDS011;24367;51.640;9.566;2023-02-26T08:28:52;1.58;;;0.85;;
38609;SDS011;24367;51.640;9.566;2023-02-26T08:31:18;3.65;;;1.17;;
38609;SDS011;24367;51.640;9.566;2023-02-26T08:33:45;2.35;;;0.85;;
38609;SDS011;24367;51.640;9.566;2023-02-26T08:36:12;2.33;;;0.90;;
38609;SDS011;24367;51.640;9.566;2023-02-26T08:38:38;1.73;;;0.80;;
38609;SDS011;24367;51.640;9.566;2023-02-26T08:41:06;2.35;;;0.73;;
38609;SDS011;24367;51.640;9.566;2023-02-26T08:43:33;2.72;;;0.98;;
38609;SDS011;24367;51.640;9.566;2023-02-26T08:45:59;3.88;;;0.70;;
38609;SDS011;24367;51.640;9.566;2023-02-26T08:48:26;1.25;;;0.50;;
38609;SDS011;24367;51.640;9.566;2023-02-26T08:50:52;2.97;;;0.70;;
38609;SDS011;24367;51.640;9.566;2023-02-26T08:53:19;2.88;;;0.80;;
38609;SDS011;24367;51.640;9.566;2023-02-26T08:55:46;5.07;;;0.73;;
38609;SDS011;24367;51.640;9.566;2023-02-26T08:58:14;4.55;;;0.90;;
38609;SDS011;24367;51.640;9.566;2023-02-26T09:00:41;3.40;;;0.93;;
38609;SDS011;24367;51.640;9.566;2023-02-26T09:03:07;3.63;;;0.70;;
38609;SDS011;24367;51.640;9.566;2023-02-26T09:05:33;3.05;;;0.85;;
38609;SDS011;24367;51.640;9.566;2023-02-26T09:08:00;2.78;;;1.00;;
38609;SDS011;24367;51.640;9.566;2023-02-26T09:10:26;2.92;;;0.75;;
38609;SDS011;24367;51.640;9.566;2023-02-26T09:12:53;1.90;;;0.90;;
38609;SDS011;24367;51.640;9.566;2023-02-26T09:15:21;2.13;;;0.88;;
38609;SDS011;24367;51.640;9.566;2023-02-26T09:17:47;2.03;;;0.70;;
38609;SDS011;24367;51.640;9.566;2023-02-26T09:20:14;3.83;;;0.70;;
38609;SDS011;24367;51.640;9.566;2023-02-26T09:22:41;2.28;;;0.75;;
38609;SDS011;24367;51.640;9.566;2023-02-26T09:25:07;4.72;;;0.95;;
38609;SDS011;24367;51.640;9.566;2023-02-26T09:27:35;3.20;;;0.75;;
38609;SDS011;24367;51.640;9.566;2023-02-26T09:30:02;4.35;;;0.95;;
38609;SDS011;24367;51.640;9.566;2023-02-26T09:32:30;4.63;;;1.00;;
38609;SDS011;24367;51.640;9.566;2023-02-26T09:34:56;2.83;;;0.70;;
38609;SDS011;24367;51.640;9.566;2023-02-26T09:37:22;2.17;;;0.68;;
38609;SDS011;24367;51.640;9.566;2023-02-26T09:39:49;3.33;;;0.98;;
38609;SDS011;24367;51.640;9.566;2023-02-26T09:42:18;1.95;;;0.95;;
38609;SDS011;24367;51.640;9.566;2023-02-26T09:44:52;2.25;;;0.75;;
38609;SDS011;24367;51.640;9.566;2023-02-26T09:47:24;2.22;;;0.90;;
38609;SDS011;24367;51.640;9.566;2023-02-26T09:49:56;1.85;;;0.85;;
38609;SDS011;24367;51.640;9.566;2023-02-26T09:52:28;2.20;;;0.60;;
38609;SDS011;24367;51.640;9.566;2023-02-26T09:54:58;9.13;;;1.17;;
38609;SDS011;24367;51.640;9.566;2023-02-26T09:57:28;2.28;;;0.80;;
38609;SDS011;24367;51.640;9.566;2023-02-26T09:59:56;2.05;;;0.80;;
38609;SDS011;24367;51.640;9.566;2023-02-26T10:02:27;2.80;;;0.70;;
38609;SDS011;24367;51.640;9.566;2023-02-26T10:05:02;2.10;;;0.75;;
38609;SDS011;24367;51.640;9.566;2023-02-26T10:07:37;2.42;;;0.65;;
38609;SDS011;24367;51.640;9.566;2023-02-26T10:10:14;1.80;;;0.67;;
38609;SDS011;24367;51.640;9.566;2023-02-26T10:12:45;2.50;;;0.90;;
38609;SDS011;24367;51.640;9.566;2023-02-26T10:15:13;4.47;;;1.20;;
38609;SDS011;24367;51.640;9.566;2023-02-26T10:17:45;5.10;;;0.98;;
38609;SDS011;24367;51.640;9.566;2023-02-26T10:20:22;6.03;;;0.93;;
38609;SDS011;24367;51.640;9.566;2023-02-26T10:22:53;4.72;;;1.30;;
38609;SDS011;24367;51.640;9.566;2023-02-26T10:25:24;2.47;;;1.00;;
38609;SDS011;24367;51.640;9.566;2023-02-26T10:27:57;3.20;;;0.88;;
38609;SDS011;24367;51.640;9.566;2023-02-26T10:30:28;4.30;;;1.02;;
38609;SDS011;24367;51.640;9.566;2023-02-26T10:33:02;2.75;;;1.08;;
38609;SDS011;24367;51.640;9.566;2023-02-26T10:35:34;2.83;;;1.02;;
38609;SDS011;24367;51.640;9.566;2023-02-26T10:38:03;5.72;;;1.10;;
38609;SDS011;24367;51.640;9.566;2023-02-26T10:40:33;3.38;;;1.08;;
38609;SDS011;24367;51.640;9.566;2023-02-26T10:43:03;4.03;;;0.95;;
38609;SDS011;24367;51.640;9.566;2023-02-26T10:45:38;3.10;;;1.00;;
38609;SDS011;24367;51.640;9.566;2023-02-26T10:48:13;3.88;;;1.13;;
38609;SDS011;24367;51.640;9.566;2023-02-26T10:50:49;5.95;;;1.40;;
38609;SDS011;24367;51.640;9.566;2023-02-26T10:53:17;4.43;;;1.02;;
38609;SDS011;24367;51.640;9.566;2023-02-26T10:55:46;3.55;;;1.05;;
38609;SDS011;24367;51.640;9.566;2023-02-26T10:58:16;2.70;;;1.00;;
38609;SDS011;24367;51.640;9.566;2023-02-26T11:00:45;5.60;;;1.20;;
38609;SDS011;24367;51.640;9.566;2023-02-26T11:03:14;5.05;;;1.00;;
38609;SDS011;24367;51.640;9.566;2023-02-26T11:05:42;4.75;;;0.95;;
38609;SDS011;24367;51.640;9.566;2023-02-26T11:08:12;2.67;;;1.30;;
38609;SDS011;24367;51.640;9.566;2023-02-26T11:10:43;5.85;;;1.27;;
38609;SDS011;24367;51.640;9.566;2023-02-26T11:13:13;2.28;;;1.10;;
38609;SDS011;24367;51.640;9.566;2023-02-26T11:15:39;3.40;;;0.90;;
38609;SDS011;24367;51.640;9.566;2023-02-26T11:18:07;2.60;;;0.88;;
38609;SDS011;24367;51.640;9.566;2023-02-26T11:20:38;3.35;;;1.25;;
38609;SDS011;24367;51.640;9.566;2023-02-26T11:23:10;2.20;;;0.95;;
38609;SDS011;24367;51.640;9.566;2023-02-26T11:25:40;2.70;;;0.93;;
38609;SDS011;24367;51.640;9.566;2023-02-26T11:28:09;3.55;;;1.20;;
38609;SDS011;24367;51.640;9.566;2023-02-26T11:30:46;7.18;;;1.30;;
38609;SDS011;24367;51.640;9.566;2023-02-26T11:33:16;3.97;;;0.93;;
38609;SDS011;24367;51.640;9.566;2023-02-26T11:35:45;4.18;;;1.15;;
38609;SDS011;24367;51.640;9.566;2023-02-26T11:38:15;3.63;;;0.95;;
38609;SDS011;24367;51.640;9.566;2023-02-26T11:40:45;2.63;;;0.85;;
38609;SDS011;24367;51.640;9.566;2023-02-26T11:43:14;3.17;;;1.00;;
38609;SDS011;24367;51.640;9.566;2023-02-26T11:45:43;3.45;;;1.00;;
38609;SDS011;24367;51.640;9.566;2023-02-26T11:48:12;2.92;;;0.88;;
38609;SDS011;24367;51.640;9.566;2023-02-26T11:50:41;6.18;;;1.05;;
38609;SDS011;24367;51.640;9.566;2023-02-26T11:53:16;3.42;;;0.75;;
38609;SDS011;24367;51.640;9.566;2023-02-26T11:55:44;4.43;;;1.10;;
38609;SDS011;24367;51.640;9.566;2023-02-26T11:58:16;3.88;;;1.23;;
38609;SDS011;24367;51.640;9.566;2023-02-26T12:00:43;2.67;;;0.82;;
38609;SDS011;24367;51.640;9.566;2023-02-26T12:03:14;2.22;;;0.68;;
38609;SDS011;24367;51.640;9.566;2023-02-26T12:05:41;2.80;;;0.80;;
38609;SDS011;24367;51.640;9.566;2023-02-26T12:08:12;4.75;;;1.50;;
38609;SDS011;24367;51.640;9.566;2023-02-26T12:10:48;3.58;;;0.82;;
38609;SDS011;24367;51.640;9.566;2023-02-26T12:13:19;2.78;;;0.60;;
38609;SDS011;24367;51.640;9.566;2023-02-26T12:15:52;2.00;;;0.85;;
38609;SDS011;24367;51.640;9.566;2023-02-26T12:18:29;2.45;;;0.98;;
38609;SDS011;24367;51.640;9.566;2023-02-26T12:21:11;6.90;;;1.10;;
38609;SDS011;24367;51.640;9.566;2023-02-26T12:23:59;4.25;;;0.98;;
38609;SDS011;24367;51.640;9.566;2023-02-26T12:26:36;3.72;;;1.23;;
38609;SDS011;24367;51.640;9.566;2023-02-26T12:29:10;6.68;;;1.40;;
38609;SDS011;24367;51.640;9.566;2023-02-26T12:31:57;3.90;;;1.40;;
38609;SDS011;24367;51.640;9.566;2023-02-26T12:34:37;7.03;;;1.27;;
38609;SDS011;24367;51.640;9.566;2023-02-26T12:37:15;5.65;;;1.27;;
38609;SDS011;24367;51.640;9.566;2023-02-26T12:39:55;3.70;;;1.40;;
38609;SDS011;24367;51.640;9.566;2023-02-26T12:42:30;5.72;;;1.40;;
38609;SDS011;24367;51.640;9.566;2023-02-26T12:45:10;4.60;;;1.50;;
38609;SDS011;24367;51.640;9.566;2023-02-26T12:47:42;6.20;;;1.60;;
38609;SDS011;24367;51.640;9.566;2023-02-26T12:52:57;3.28;;;1.35;;
38609;SDS011;24367;51.640;9.566;2023-02-26T12:55:35;5.75;;;1.30;;
38609;SDS011;24367;51.640;9.566;2023-02-26T12:58:17;9.52;;;1.35;;
38609;SDS011;24367;51.640;9.566;2023-02-26T13:00:54;9.10;;;1.10;;
38609;SDS011;24367;51.640;9.566;2023-02-26T13:03:42;6.22;;;1.50;;
38609;SDS011;24367;51.640;9.566;2023-02-26T13:06:34;4.20;;;1.25;;
38609;SDS011;24367;51.640;9.566;2023-02-26T13:09:11;2.42;;;1.00;;
38609;SDS011;24367;51.640;9.566;2023-02-26T13:11:49;2.90;;;1.00;;
38609;SDS011;24367;51.640;9.566;2023-02-26T13:14:24;14.73;;;2.03;;
38609;SDS011;24367;51.640;9.566;2023-02-26T13:16:57;8.18;;;1.50;;
38609;SDS011;24367;51.640;9.566;2023-02-26T13:19:29;4.13;;;0.98;;
38609;SDS011;24367;51.640;9.566;2023-02-26T13:21:59;4.28;;;1.35;;
38609;SDS011;24367;51.640;9.566;2023-02-26T13:24:31;3.70;;;1.25;;
38609;SDS011;24367;51.640;9.566;2023-02-26T13:27:02;4.00;;;1.38;;
38609;SDS011;24367;51.640;9.566;2023-02-26T13:29:31;5.18;;;1.27;;
38609;SDS011;24367;51.640;9.566;2023-02-26T13:32:01;6.82;;;1.23;;
38609;SDS011;24367;51.640;9.566;2023-02-26T13:34:33;4.18;;;1.38;;
38609;SDS011;24367;51.640;9.566;2023-02-26T13:37:02;5.57;;;1.15;;
38609;SDS011;24367;51.640;9.566;2023-02-26T13:39:39;5.10;;;1.27;;
38609;SDS011;24367;51.640;9.566;2023-02-26T13:42:13;8.90;;;1.50;;
38609;SDS011;24367;51.640;9.566;2023-02-26T13:44:48;15.32;;;2.60;;
38609;SDS011;24367;51.640;9.566;2023-02-26T13:47:27;6.72;;;1.50;;
38609;SDS011;24367;51.640;9.566;2023-02-26T13:50:02;7.70;;;2.25;;
38609;SDS011;24367;51.640;9.566;2023-02-26T13:52:33;7.30;;;1.70;;
38609;SDS011;24367;51.640;9.566;2023-02-26T13:55:01;6.57;;;1.52;;
38609;SDS011;24367;51.640;9.566;2023-02-26T13:57:35;8.32;;;1.58;;
38609;SDS011;24367;51.640;9.566;2023-02-26T14:00:07;7.53;;;1.45;;
38609;SDS011;24367;51.640;9.566;2023-02-26T14:02:46;7.40;;;1.85;;
38609;SDS011;24367;51.640;9.566;2023-02-26T14:05:28;9.23;;;1.60;;
38609;SDS011;24367;51.640;9.566;2023-02-26T14:08:17;5.95;;;1.73;;
38609;SDS011;24367;51.640;9.566;2023-02-26T14:10:53;6.00;;;1.73;;
38609;SDS011;24367;51.640;9.566;2023-02-26T14:13:23;6.50;;;1.35;;
38609;SDS011;24367;51.640;9.566;2023-02-26T14:15:58;5.45;;;1.70;;
38609;SDS011;24367;51.640;9.566;2023-02-26T14:18:30;7.45;;;1.73;;
38609;SDS011;24367;51.640;9.566;2023-02-26T14:24:04;5.00;;;1.40;;
38609;SDS011;24367;51.640;9.566;2023-02-26T14:26:33;4.15;;;1.70;;
38609;SDS011;24367;51.640;9.566;2023-02-26T14:29:12;5.57;;;1.48;;
38609;SDS011;24367;51.640;9.566;2023-02-26T14:34:40;4.75;;;1.52;;
38609;SDS011;24367;51.640;9.566;2023-02-26T14:37:13;4.88;;;1.20;;
38609;SDS011;24367;51.640;9.566;2023-02-26T14:39:41;5.28;;;1.20;;
38609;SDS011;24367;51.640;9.566;2023-02-26T14:42:11;7.20;;;1.15;;
38609;SDS011;24367;51.640;9.566;2023-02-26T14:44:41;3.65;;;1.38;;
38609;SDS011;24367;51.640;9.566;2023-02-26T14:47:10;5.47;;;1.13;;
38609;SDS011;24367;51.640;9.566;2023-02-26T14:49:37;5.82;;;1.52;;
38609;SDS011;24367;51.640;9.566;2023-02-26T14:55:14;3.85;;;1.38;;
38609;SDS011;24367;51.640;9.566;2023-02-26T14:57:49;5.57;;;1.67;;
38609;SDS011;24367;51.640;9.566;2023-02-26T15:00:24;4.60;;;1.38;;
38609;SDS011;24367;51.640;9.566;2023-02-26T15:05:59;14.98;;;1.42;;
38609;SDS011;24367;51.640;9.566;2023-02-26T15:08:35;8.15;;;1.95;;
38609;SDS011;24367;51.640;9.566;2023-02-26T15:11:11;5.35;;;1.33;;
38609;SDS011;24367;51.640;9.566;2023-02-26T15:13:48;6.13;;;1.52;;
38609;SDS011;24367;51.640;9.566;2023-02-26T15:16:27;4.13;;;1.20;;
38609;SDS011;24367;51.640;9.566;2023-02-26T15:19:03;8.95;;;1.27;;
38609;SDS011;24367;51.640;9.566;2023-02-26T15:21:40;4.22;;;1.30;;
38609;SDS011;24367;51.640;9.566;2023-02-26T15:26:41;3.67;;;1.30;;
38609;SDS011;24367;51.640;9.566;2023-02-26T15:29:12;6.55;;;1.55;;
38609;SDS011;24367;51.640;9.566;2023-02-26T15:31:41;12.90;;;1.25;;